Check out our new BloomSky Weather System.

Active alerts


No alerts


Thunder radar  blitzortung!


Rain radar more information rain snow radar


Visit our other weather sites:

Template documentation
and downloads

And another site



Weather Underground History page Text

Daily Summary for March 1, 2017 Units:  Metric    English   Both
« Previous Day
Next Day »
Daily Weekly Monthly Yearly Custom
  High: Low: Average:
Temperature: -17.8 °C 14.8 °C 22.5 °C
Dew Point: -17.8 °C -1.7 °C 13.2 °C
Humidity: Humidity % 30 % 60 %
Wind Speed: 0 km/h 0 km/h 7.4 km/h
Wind Gust: 0 km/h - -
Wind:- - WSW
Pressure: 0 hPa 1011.4 hPa -
Precipitation: 0 mm    
Historical Graphs
 
 
Tabular Data for March 1, 2017
Time Temperature Dew Point Pressure Wind Wind Speed Wind Gust Humidity Rainfall Rate (Hourly)
-17.8 °C -17.8 °C 0 hPa Calm     Humidity % 0 mm
00:02 23.6 °C 21.9 °C 1012.1 hPa SSE 8 km/h 19.3 km/h 90 % 0 mm
00:07 23.6 °C 21.9 °C 1012.1 hPa ESE 3.2 km/h 14.5 km/h 90 % 0 mm
00:12 23.6 °C 21.9 °C 1012.1 hPa SE 8 km/h 14.5 km/h 90 % 0 mm
00:17 23.6 °C 21.9 °C 1012.1 hPa South 6.4 km/h 14.5 km/h 90 % 0 mm
00:23 23.6 °C 21.9 °C 1011.7 hPa SE 6.4 km/h 14.5 km/h 90 % 0 mm
00:28 23.6 °C 21.9 °C 1011.7 hPa SSW 6.4 km/h 16.1 km/h 90 % 0 mm
00:33 23.6 °C 21.9 °C 1011.7 hPa SE 9.7 km/h 16.1 km/h 90 % 0 mm
00:38 23.6 °C 21.7 °C 1011.7 hPa SSE 9.7 km/h 17.7 km/h 89 % 0 mm
00:43 23.6 °C 21.9 °C 1011.7 hPa SSE 4.8 km/h 17.7 km/h 90 % 0 mm
00:48 23.5 °C 21.8 °C 1011.7 hPa SSE 4.8 km/h 17.7 km/h 90 % 0 mm
00:53 23.5 °C 21.8 °C 1011.7 hPa ESE 8 km/h 14.5 km/h 90 % 0 mm
00:58 23.5 °C 21.8 °C 1011.4 hPa SE 8 km/h 14.5 km/h 90 % 0 mm
01:03 23.5 °C 21.8 °C 1011.4 hPa SSW 8 km/h 19.3 km/h 90 % 0 mm
01:08 23.5 °C 21.8 °C 1011.7 hPa SE 6.4 km/h 19.3 km/h 90 % 0 mm
01:13 23.5 °C 21.8 °C 1011.7 hPa South 8 km/h 19.3 km/h 90 % 0 mm
01:18 23.4 °C 21.7 °C 1011.7 hPa SW 14.5 km/h 17.7 km/h 90 % 0 mm
01:23 23.4 °C 21.7 °C 1011.7 hPa SSW 6.4 km/h 16.1 km/h 90 % 0 mm
01:28 23.4 °C 21.8 °C 1011.7 hPa SSE 3.2 km/h 14.5 km/h 91 % 0 mm
01:33 23.4 °C 21.8 °C 1011.7 hPa South 4.8 km/h 14.5 km/h 91 % 0 mm
01:38 23.4 °C 21.8 °C 1011.4 hPa ESE 6.4 km/h 14.5 km/h 91 % 0 mm
01:43 23.4 °C 21.8 °C 1011.7 hPa SE 3.2 km/h 16.1 km/h 91 % 0 mm
01:48 23.4 °C 21.8 °C 1011.7 hPa South 9.7 km/h 16.1 km/h 91 % 0 mm
01:53 23.4 °C 21.8 °C 1011.7 hPa South 6.4 km/h 16.1 km/h 91 % 0 mm
01:58 23.4 °C 21.8 °C 1011.7 hPa ESE 4.8 km/h 14.5 km/h 91 % 0 mm
02:03 23.4 °C 21.8 °C 1011.7 hPa SSE 8 km/h 14.5 km/h 91 % 0 mm
02:08 23.4 °C 21.8 °C 1011.7 hPa South 4.8 km/h 16.1 km/h 91 % 0 mm
02:27 23.3 °C 21.7 °C 1011.4 hPa SSE 4.8 km/h 11.3 km/h 91 % 0 mm
02:32 23.3 °C 21.7 °C 1011.4 hPa SE 6.4 km/h 16.1 km/h 91 % 0 mm
02:37 23.3 °C 21.7 °C 1011.4 hPa SSE 8 km/h 17.7 km/h 91 % 0 mm
02:42 23.3 °C 21.6 °C 1011.4 hPa SSW 12.9 km/h 17.7 km/h 90 % 0 mm
02:47 23.3 °C 21.6 °C 1011.7 hPa SW 8 km/h 19.3 km/h 90 % 0 mm
02:52 23.4 °C 21.7 °C 1011.7 hPa SSW 6.4 km/h 19.3 km/h 90 % 0 mm
02:57 23.4 °C 21.7 °C 1011.4 hPa SSE 8 km/h 19.3 km/h 90 % 0 mm
03:02 23.4 °C 21.7 °C 1011.4 hPa South 4.8 km/h 14.5 km/h 90 % 0 mm
03:07 23.5 °C 21.8 °C 1011.7 hPa SE 4.8 km/h 14.5 km/h 90 % 0 mm
03:12 23.5 °C 21.8 °C 1011.4 hPa SSW 6.4 km/h 14.5 km/h 90 % 0 mm
03:17 23.5 °C 21.8 °C 1011.7 hPa South 4.8 km/h 14.5 km/h 90 % 0 mm
03:22 23.5 °C 21.8 °C 1011.4 hPa South 8 km/h 14.5 km/h 90 % 0 mm
03:27 23.5 °C 21.8 °C 1011.4 hPa SSE 6.4 km/h 16.1 km/h 90 % 0 mm
03:32 23.5 °C 21.8 °C 1011.4 hPa South 4.8 km/h 16.1 km/h 90 % 0 mm
03:37 23.5 °C 21.8 °C 1011.4 hPa SSW 4.8 km/h 16.1 km/h 90 % 0 mm
03:49 23.5 °C 21.8 °C 1011.4 hPa South 8 km/h 16.1 km/h 90 % 0 mm
03:54 23.5 °C 21.8 °C 1011.7 hPa South 1.6 km/h 17.7 km/h 90 % 0 mm
03:59 23.5 °C 21.8 °C 1011.7 hPa South 8 km/h 17.7 km/h 90 % 0 mm
04:04 23.4 °C 21.7 °C 1011.7 hPa South 3.2 km/h 17.7 km/h 90 % 0 mm
04:09 23.4 °C 21.7 °C 1011.7 hPa SSE 4.8 km/h 14.5 km/h 90 % 0 mm
04:14 23.4 °C 21.7 °C 1011.7 hPa SE 11.3 km/h 14.5 km/h 90 % 0 mm
04:19 23.4 °C 21.5 °C 1011.7 hPa SSW 8 km/h 14.5 km/h 89 % 0 mm
04:24 23.4 °C 21.5 °C 1011.7 hPa SSW 4.8 km/h 19.3 km/h 89 % 0 mm
04:29 23.4 °C 21.5 °C 1011.7 hPa SSW 11.3 km/h 19.3 km/h 89 % 0 mm
04:34 23.4 °C 21.5 °C 1012.1 hPa SSW 1.6 km/h 19.3 km/h 89 % 0 mm
04:39 23.4 °C 21.5 °C 1012.1 hPa SSW 8 km/h 17.7 km/h 89 % 0 mm
04:44 23.4 °C 21.5 °C 1012.1 hPa SW 14.5 km/h 17.7 km/h 89 % 0 mm
04:45 23.4 °C 21.5 °C 1012.1 hPa SSW 3.2 km/h 17.7 km/h 89 % 0 mm
04:50 23.4 °C 21.5 °C 1012.1 hPa South 6.4 km/h 14.5 km/h 89 % 0 mm
04:55 23.3 °C 21.4 °C 1012.1 hPa South 8 km/h 14.5 km/h 89 % 0 mm
05:00 23.3 °C 21.6 °C 1012.1 hPa SW 4.8 km/h 14.5 km/h 90 % 0 mm
05:05 23.3 °C 21.6 °C 1012.4 hPa SSW 9.7 km/h 12.9 km/h 90 % 0 mm
05:10 23.3 °C 21.6 °C 1012.8 hPa SW 3.2 km/h 12.9 km/h 90 % 0 mm
05:15 23.2 °C 21.5 °C 1013.1 hPa WSW 1.6 km/h 12.9 km/h 90 % 0 mm
05:20 23.2 °C 21.5 °C 1014.1 hPa NNW 4.8 km/h 11.3 km/h 90 % 0 mm
05:25 23.3 °C 21.6 °C 1014.4 hPa NNW 1.6 km/h 8 km/h 90 % 0 mm
05:30 23.3 °C 21.6 °C 1014.1 hPa West 3.2 km/h 11.3 km/h 90 % 0 mm
05:35 23.3 °C 21.6 °C 1014.1 hPa SW 4.8 km/h 12.9 km/h 90 % 0 mm
05:40 23.3 °C 21.6 °C 1014.1 hPa WSW 1.6 km/h 12.9 km/h 90 % 0 mm
05:45 23.3 °C 21.6 °C 1014.1 hPa WSW 1.6 km/h 8 km/h 90 % 0 mm
05:50 23.2 °C 21.5 °C 1014.1 hPa WSW 1.6 km/h 8 km/h 90 % 0 mm
05:55 23.2 °C 21.5 °C 1014.1 hPa Calm   8 km/h 90 % 0 mm
06:00 23.1 °C 21.4 °C 1014.1 hPa Calm   6.4 km/h 90 % 0 mm
06:05 23.1 °C 21.5 °C 1014.4 hPa WSW 1.6 km/h 6.4 km/h 91 % 0 mm
06:10 23.1 °C 21.5 °C 1014.4 hPa SW 1.6 km/h 6.4 km/h 91 % 0 mm
06:11 23.1 °C 21.5 °C 1014.4 hPa WNW 1.6 km/h 6.4 km/h 91 % 0 mm
06:16 23 °C 21.4 °C 1014.1 hPa Calm   6.4 km/h 91 % 0 mm
06:21 22.9 °C 21.4 °C 1014.1 hPa Calm   4.8 km/h 91 % 0 mm
06:26 22.9 °C 21.4 °C 1014.1 hPa Calm   3.2 km/h 91 % 0 mm
06:31 22.8 °C 21.3 °C 1014.1 hPa SSE 1.6 km/h 3.2 km/h 91 % 0 mm
06:36 22.8 °C 21.3 °C 1014.4 hPa Calm   3.2 km/h 91 % 0 mm
06:41 22.8 °C 21.4 °C 1014.4 hPa Calm   3.2 km/h 92 % 0 mm
06:46 22.7 °C 21.3 °C 1014.4 hPa Calm   3.2 km/h 92 % 0 mm
06:51 22.7 °C 21.3 °C 1014.4 hPa Calm   3.2 km/h 92 % 0 mm
06:56 22.6 °C 21.2 °C 1014.4 hPa Calm   3.2 km/h 92 % 0 mm
07:01 22.6 °C 21.2 °C 1014.4 hPa Calm   3.2 km/h 92 % 0 mm
07:06 22.6 °C 21.2 °C 1014.4 hPa Calm   3.2 km/h 92 % 0 mm
07:12 22.6 °C 21.2 °C 1014.4 hPa Calm   3.2 km/h 92 % 0 mm
07:17 22.5 °C 21.1 °C 1014.1 hPa SE 3.2 km/h 3.2 km/h 92 % 0 mm
07:22 22.6 °C 21.2 °C 1013.8 hPa SE 4.8 km/h 6.4 km/h 92 % 0 mm
07:27 22.7 °C 21.3 °C 1014.1 hPa SSE 6.4 km/h 9.7 km/h 92 % 0 mm
07:32 22.7 °C 21.3 °C 1014.1 hPa Calm   9.7 km/h 92 % 0 mm
07:37 22.7 °C 21.3 °C 1014.1 hPa Calm   9.7 km/h 92 % 0 mm
07:42 22.8 °C 21.3 °C 1014.1 hPa Calm   6.4 km/h 91 % 0 mm
07:47 22.8 °C 21.3 °C 1014.1 hPa South 1.6 km/h 3.2 km/h 91 % 0 mm
07:52 22.9 °C 21.4 °C 1014.4 hPa South 1.6 km/h 3.2 km/h 91 % 0 mm
07:57 22.9 °C 21.4 °C 1014.4 hPa SSE 1.6 km/h 3.2 km/h 91 % 0 mm
08:02 23.1 °C 21.5 °C 1014.4 hPa SE 1.6 km/h 3.2 km/h 91 % 0 mm
08:07 23.2 °C 21.6 °C 1014.4 hPa SSE 4.8 km/h 4.8 km/h 91 % 0 mm
08:12 23.4 °C 21.8 °C 1014.4 hPa SSW 1.6 km/h 4.8 km/h 91 % 0 mm
08:17 23.6 °C 21.7 °C 1014.4 hPa SW 3.2 km/h 6.4 km/h 89 % 0 mm
08:22 23.8 °C 21.9 °C 1014.8 hPa SSE 3.2 km/h 6.4 km/h 89 % 0 mm
08:27 24.1 °C 22 °C 1014.8 hPa SSW 6.4 km/h 9.7 km/h 88 % 0 mm
08:32 24.3 °C 22 °C 1014.8 hPa SSW 1.6 km/h 9.7 km/h 87 % 0 mm
08:37 24.6 °C 22.1 °C 1014.8 hPa SSW 1.6 km/h 9.7 km/h 86 % 0 mm
08:42 24.7 °C 22 °C 1015.1 hPa SW 3.2 km/h 8 km/h 85 % 0 mm
08:47 25.1 °C 22.4 °C 1015.1 hPa Calm   8 km/h 85 % 0 mm
08:52 25.3 °C 22.2 °C 1015.1 hPa SW 1.6 km/h 8 km/h 83 % 0 mm
08:57 25.6 °C 22.3 °C 1015.1 hPa Calm   8 km/h 82 % 0 mm
09:02 25.8 °C 22.1 °C 1015.1 hPa SW 1.6 km/h 8 km/h 80 % 0 mm
09:07 25.8 °C 21.7 °C 1015.1 hPa SW 1.6 km/h 8 km/h 78 % 0 mm
09:12 25.8 °C 21.9 °C 1015.1 hPa North 3.2 km/h 9.7 km/h 79 % 0 mm
09:17 25.7 °C 21.4 °C 1015.5 hPa WNW 8 km/h 11.3 km/h 77 % 0 mm
09:22 25.8 °C 21.7 °C 1015.5 hPa WNW 3.2 km/h 11.3 km/h 78 % 0 mm
09:27 26.1 °C 21.7 °C 1015.5 hPa South 1.6 km/h 11.3 km/h 77 % 0 mm
09:32 26.1 °C 21.5 °C 1015.5 hPa Calm   11.3 km/h 76 % 0 mm
09:37 26.3 °C 21.5 °C 1015.5 hPa North 3.2 km/h 12.9 km/h 75 % 0 mm
09:42 26.2 °C 21.2 °C 1015.5 hPa West 3.2 km/h 12.9 km/h 74 % 0 mm
09:47 26.3 °C 21.3 °C 1015.5 hPa West 4.8 km/h 12.9 km/h 74 % 0 mm
09:52 26.2 °C 20.5 °C 1015.8 hPa NNW 9.7 km/h 12.9 km/h 71 % 0 mm
09:57 26.1 °C 20.9 °C 1015.8 hPa NW 3.2 km/h 16.1 km/h 73 % 0 mm
10:02 26.3 °C 20.4 °C 1015.8 hPa NW 3.2 km/h 16.1 km/h 70 % 0 mm
10:07 26.3 °C 19.9 °C 1015.8 hPa NW 11.3 km/h 20.9 km/h 68 % 0 mm
10:12 26.3 °C 19.4 °C 1015.8 hPa NW 6.4 km/h 20.9 km/h 66 % 0 mm
10:17 26.5 °C 18.9 °C 1016.1 hPa NNW 8 km/h 20.9 km/h 63 % 0 mm
10:22 26.7 °C 18 °C 1016.1 hPa NNW 9.7 km/h 17.7 km/h 59 % 0 mm
10:27 26.7 °C 18.6 °C 1016.1 hPa NNW 6.4 km/h 19.3 km/h 61 % 0 mm
10:32 26.9 °C 18.5 °C 1016.1 hPa WNW 12.9 km/h 19.3 km/h 60 % 0 mm
10:37 26.9 °C 17.7 °C 1016.1 hPa NW 8 km/h 19.3 km/h 57 % 0 mm
10:42 26.9 °C 17.9 °C 1016.1 hPa NW 6.4 km/h 16.1 km/h 58 % 0 mm
10:47 27 °C 18 °C 1016.1 hPa NW 8 km/h 19.3 km/h 58 % 0 mm
10:52 26.9 °C 17.9 °C 1016.5 hPa NW 14.5 km/h 19.3 km/h 58 % 0 mm
10:57 26.9 °C 18.2 °C 1016.1 hPa NW 8 km/h 19.3 km/h 59 % 0 mm
11:02 27.1 °C 18.1 °C 1016.5 hPa NW 9.7 km/h 22.5 km/h 58 % 0 mm
11:07 26.8 °C 17.8 °C 1016.5 hPa NW 4.8 km/h 22.5 km/h 58 % 0 mm
11:12 26.9 °C 17.7 °C 1016.5 hPa NNW 8 km/h 22.5 km/h 57 % 0 mm
11:17 27.2 °C 17.9 °C 1016.5 hPa NW 11.3 km/h 20.9 km/h 57 % 0 mm
11:22 26.9 °C 17.7 °C 1016.5 hPa NW 9.7 km/h 14.5 km/h 57 % 0 mm
11:27 26.9 °C 17.1 °C 1016.5 hPa WNW 11.3 km/h 16.1 km/h 55 % 0 mm
11:32 27 °C 17.5 °C 1016.5 hPa WNW 8 km/h 19.3 km/h 56 % 0 mm
11:37 27.3 °C 17.5 °C 1016.8 hPa NW 12.9 km/h 19.3 km/h 55 % 0 mm
11:42 27.3 °C 16.9 °C 1016.5 hPa NW 19.3 km/h 19.3 km/h 53 % 0 mm
11:47 27.1 °C 17 °C 1016.5 hPa NW 9.7 km/h 24.1 km/h 54 % 0 mm
11:52 26.9 °C 15.9 °C 1016.5 hPa WNW 11.3 km/h 32.2 km/h 51 % 0 mm
11:57 26.8 °C 16.1 °C 1016.5 hPa NNW 14.5 km/h 32.2 km/h 52 % 0 mm
12:02 26.9 °C 16.8 °C 1016.5 hPa NW 6.4 km/h 32.2 km/h 54 % 0 mm
12:07 27.2 °C 17.1 °C 1016.5 hPa NW 11.3 km/h 20.9 km/h 54 % 0 mm
12:12 27.1 °C 16.1 °C 1016.5 hPa NW 11.3 km/h 19.3 km/h 51 % 0 mm
12:17 26.9 °C 15.6 °C 1016.5 hPa NNW 8 km/h 20.9 km/h 50 % 0 mm
12:22 26.9 °C 15 °C 1016.5 hPa NNW 16.1 km/h 20.9 km/h 48 % 0 mm
12:27 27.1 °C 14.5 °C 1016.5 hPa North 16.1 km/h 20.9 km/h 46 % 0 mm
12:32 26.8 °C 13.5 °C 1016.5 hPa NW 9.7 km/h 22.5 km/h 44 % 0 mm
12:37 26.9 °C 14.3 °C 1016.5 hPa WNW 12.9 km/h 22.5 km/h 46 % 0 mm
12:42 27.2 °C 14.9 °C 1016.5 hPa NNW 12.9 km/h 22.5 km/h 47 % 0 mm
12:47 26.7 °C 14.5 °C 1016.5 hPa West 8 km/h 22.5 km/h 47 % 0 mm
12:52 26.6 °C 14.4 °C 1016.5 hPa NW 4.8 km/h 22.5 km/h 47 % 0 mm
12:57 26.6 °C 14.4 °C 1016.5 hPa NNW 8 km/h 24.1 km/h 47 % 0 mm
13:02 26.5 °C 13.9 °C 1016.1 hPa NNW 6.4 km/h 24.1 km/h 46 % 0 mm
13:07 26.5 °C 14.6 °C 1016.5 hPa WNW 6.4 km/h 24.1 km/h 48 % 0 mm
13:12 26.6 °C 14.4 °C 1016.1 hPa North 9.7 km/h 24.1 km/h 47 % 0 mm
13:17 26.7 °C 14.1 °C 1016.1 hPa North 24.1 km/h 24.1 km/h 46 % 0 mm
13:22 26.4 °C 11.3 °C 1016.5 hPa West 9.7 km/h 24.1 km/h 39 % 0 mm
13:27 26.1 °C 9.4 °C 1016.5 hPa NW 12.9 km/h 24.1 km/h 35 % 0 mm
13:32 25.8 °C 9.2 °C 1016.5 hPa West 17.7 km/h 24.1 km/h 35 % 0 mm
13:37 25.7 °C 9.5 °C 1016.5 hPa NNW 11.3 km/h 29 km/h 36 % 0 mm
13:42 25.8 °C 10 °C 1016.5 hPa NNW 8 km/h 29 km/h 37 % 0 mm
13:47 25.8 °C 9.6 °C 1016.5 hPa NNW 9.7 km/h 29 km/h 36 % 0 mm
13:52 25.7 °C 9.1 °C 1016.5 hPa North 17.7 km/h 24.1 km/h 35 % 0 mm
13:57 25.4 °C 8.4 °C 1016.5 hPa NW 12.9 km/h 25.7 km/h 34 % 0 mm
14:02 25.5 °C 7.6 °C 1016.5 hPa NW 12.9 km/h 30.6 km/h 32 % 0 mm
14:07 25.6 °C 9 °C 1016.5 hPa WNW 14.5 km/h 30.6 km/h 35 % 0 mm
14:12 25.6 °C 9.4 °C 1016.5 hPa NNW 12.9 km/h 30.6 km/h 36 % 0 mm
14:17 25.7 °C 8.7 °C 1016.5 hPa NNW 24.1 km/h 25.7 km/h 34 % 0 mm
14:22 25.6 °C 9 °C 1016.5 hPa North 11.3 km/h 25.7 km/h 35 % 0 mm
14:27 25.3 °C 7.9 °C 1016.5 hPa North 12.9 km/h 25.7 km/h 33 % 0 mm
14:32 24.8 °C 7.4 °C 1016.5 hPa NNW 20.9 km/h 25.7 km/h 33 % 0 mm
14:37 24.8 °C 7.4 °C 1016.5 hPa NNW 16.1 km/h 25.7 km/h 33 % 0 mm
14:42 24.7 °C 7.3 °C 1016.5 hPa NNW 11.3 km/h 25.7 km/h 33 % 0 mm
14:47 24.6 °C 7.3 °C 1016.8 hPa NW 11.3 km/h 25.7 km/h 33 % 0 mm
14:52 24.4 °C 7.5 °C 1016.8 hPa North 12.9 km/h 25.7 km/h 34 % 0 mm
14:57 24.4 °C 8.8 °C 1016.8 hPa North 11.3 km/h 25.7 km/h 37 % 0 mm
15:02 24.3 °C 7.4 °C 1016.8 hPa NNW 11.3 km/h 24.1 km/h 34 % 0 mm
15:07 24.2 °C 8.2 °C 1016.8 hPa WNW 6.4 km/h 29 km/h 36 % 0 mm
15:12 24.3 °C 8.3 °C 1016.8 hPa North 14.5 km/h 29 km/h 36 % 0 mm
15:17 24.1 °C 8.5 °C 1016.8 hPa WNW 14.5 km/h 29 km/h 37 % 0 mm
15:22 24.1 °C 8.5 °C 1016.8 hPa West 12.9 km/h 22.5 km/h 37 % 0 mm
15:27 24 °C 8.4 °C 1016.8 hPa NNW 12.9 km/h 32.2 km/h 37 % 0 mm
15:32 24.1 °C 8.5 °C 1016.8 hPa WNW 9.7 km/h 32.2 km/h 37 % 0 mm
15:33 24.2 °C 8.6 °C 1016.8 hPa WNW 9.7 km/h 32.2 km/h 37 % 0 mm
15:38 24.2 °C 9 °C 1016.8 hPa WNW 11.3 km/h 32.2 km/h 38 % 0 mm
15:43 23.8 °C 6.6 °C 1016.8 hPa NNW 20.9 km/h 29 km/h 33 % 0 mm
15:48 23.7 °C 7.7 °C 1016.8 hPa North 14.5 km/h 30.6 km/h 36 % 0 mm
15:53 23.6 °C 8.1 °C 1016.8 hPa NNW 12.9 km/h 30.6 km/h 37 % 0 mm
15:58 23.3 °C 7.4 °C 1016.8 hPa NNW 9.7 km/h 30.6 km/h 36 % 0 mm
16:03 23 °C 6.7 °C 1017.2 hPa North 22.5 km/h 27.4 km/h 35 % 0 mm
16:08 22.7 °C 6.9 °C 1017.2 hPa WSW 20.9 km/h 29 km/h 36 % 0 mm
16:13 22.6 °C 7.2 °C 1017.2 hPa North 16.1 km/h 29 km/h 37 % 0 mm
16:18 22.4 °C 7.4 °C 1017.2 hPa North 16.1 km/h 29 km/h 38 % 0 mm
16:23 22.2 °C 6.8 °C 1017.2 hPa NW 16.1 km/h 25.7 km/h 37 % 0 mm
16:28 22.2 °C 6.8 °C 1017.2 hPa WNW 16.1 km/h 25.7 km/h 37 % 0 mm
16:33 22.1 °C 6.3 °C 1017.2 hPa NW 16.1 km/h 25.7 km/h 36 % 0 mm
16:38 22 °C 6.6 °C 1017.2 hPa NNW 11.3 km/h 30.6 km/h 37 % 0 mm
16:43 21.9 °C 6.5 °C 1017.2 hPa NNW 17.7 km/h 30.6 km/h 37 % 0 mm
16:48 21.9 °C 6.5 °C 1017.5 hPa NW 16.1 km/h 30.6 km/h 37 % 0 mm
16:53 21.8 °C 6.5 °C 1017.5 hPa NW 11.3 km/h 29 km/h 37 % 0 mm
16:58 21.7 °C 6.8 °C 1017.5 hPa NW 6.4 km/h 29 km/h 38 % 0 mm
17:03 21.7 °C 6.8 °C 1017.5 hPa NNW 11.3 km/h 29 km/h 38 % 0 mm
17:08 21.6 °C 6.7 °C 1017.5 hPa NW 12.9 km/h 25.7 km/h 38 % 0 mm
17:13 21.5 °C 6.6 °C 1017.5 hPa NNW 11.3 km/h 29 km/h 38 % 0 mm
17:18 21.5 °C 6.6 °C 1017.8 hPa NW 8 km/h 29 km/h 38 % 0 mm
17:23 21.4 °C 6.9 °C 1017.8 hPa North 22.5 km/h 29 km/h 39 % 0 mm
17:28 21.3 °C 6.8 °C 1017.8 hPa NW 9.7 km/h 24.1 km/h 39 % 0 mm
17:33 21.2 °C 6.7 °C 1017.8 hPa NW 14.5 km/h 22.5 km/h 39 % 0 mm
17:38 21.1 °C 6.2 °C 1017.8 hPa NW 14.5 km/h 25.7 km/h 38 % 0 mm
17:43 20.9 °C 6.4 °C 1017.8 hPa North 11.3 km/h 25.7 km/h 39 % 0 mm
17:48 20.9 °C 6.4 °C 1018.2 hPa WNW 14.5 km/h 25.7 km/h 39 % 0 mm
17:53 20.8 °C 6 °C 1018.2 hPa NW 8 km/h 19.3 km/h 38 % 0 mm
17:58 20.7 °C 6.2 °C 1018.2 hPa NW 8 km/h 19.3 km/h 39 % 0 mm
18:03 20.7 °C 6.2 °C 1018.5 hPa NNW 4.8 km/h 19.3 km/h 39 % 0 mm
18:08 20.6 °C 6.2 °C 1018.2 hPa NNW 11.3 km/h 17.7 km/h 39 % 0 mm
18:13 20.4 °C 6.3 °C 1018.5 hPa NNW 9.7 km/h 20.9 km/h 40 % 0 mm
18:18 20.3 °C 6.3 °C 1018.5 hPa WNW 4.8 km/h 20.9 km/h 40 % 0 mm
18:24 20.3 °C 5.9 °C 1018.5 hPa NW 9.7 km/h 20.9 km/h 39 % 0 mm
18:29 20.2 °C 5.8 °C 1018.8 hPa NNW 9.7 km/h 16.1 km/h 39 % 0 mm
18:34 20.2 °C 5.8 °C 1018.8 hPa NW 6.4 km/h 17.7 km/h 39 % 0 mm
18:39 20.1 °C 5.7 °C 1018.8 hPa NW 6.4 km/h 20.9 km/h 39 % 0 mm
18:44 20 °C 5.6 °C 1018.8 hPa WNW 6.4 km/h 20.9 km/h 39 % 0 mm
18:49 19.9 °C 5.2 °C 1018.8 hPa NNW 9.7 km/h 20.9 km/h 38 % 0 mm
18:54 19.8 °C 5.1 °C 1019.2 hPa NW 6.4 km/h 19.3 km/h 38 % 0 mm
18:59 19.8 °C 5.1 °C 1019.2 hPa WNW 9.7 km/h 20.9 km/h 38 % 0 mm
19:04 19.7 °C 4.6 °C 1019.5 hPa NW 4.8 km/h 20.9 km/h 37 % 0 mm
19:09 19.6 °C 4.9 °C 1019.5 hPa WNW 6.4 km/h 20.9 km/h 38 % 0 mm
19:14 19.5 °C 4.4 °C 1019.5 hPa West 9.7 km/h 20.9 km/h 37 % 0 mm
19:19 19.5 °C 4 °C 1019.5 hPa NNW 6.4 km/h 20.9 km/h 36 % 0 mm
19:24 19.4 °C 3.9 °C 1019.9 hPa NW 11.3 km/h 19.3 km/h 36 % 0 mm
19:29 19.3 °C 3.9 °C 1019.9 hPa NNW 8 km/h 20.9 km/h 36 % 0 mm
19:34 19.2 °C 3.8 °C 1019.9 hPa Calm   22.5 km/h 36 % 0 mm
19:39 19.1 °C 4.4 °C 1019.9 hPa NW 11.3 km/h 22.5 km/h 38 % 0 mm
19:44 18.9 °C 3.9 °C 1020.2 hPa NW 6.4 km/h 22.5 km/h 37 % 0 mm
19:49 18.8 °C 3.8 °C 1020.2 hPa NNE 8 km/h 17.7 km/h 37 % 0 mm
19:54 18.8 °C 3.8 °C 1020.2 hPa NW 3.2 km/h 17.7 km/h 37 % 0 mm
19:59 18.7 °C 3.7 °C 1020.5 hPa NNW 6.4 km/h 17.7 km/h 37 % 0 mm
20:04 18.6 °C 3.6 °C 1020.5 hPa NW 3.2 km/h 16.1 km/h 37 % 0 mm
20:09 18.6 °C 3.6 °C 1020.5 hPa NW 6.4 km/h 16.1 km/h 37 % 0 mm
20:14 18.5 °C 3.5 °C 1020.5 hPa NNW 8 km/h 12.9 km/h 37 % 0 mm
20:19 18.4 °C 3.8 °C 1020.9 hPa North 12.9 km/h 12.9 km/h 38 % 0 mm
20:24 18.4 °C 3.4 °C 1020.9 hPa NNW 6.4 km/h 14.5 km/h 37 % 0 mm
20:29 18.4 °C 3.4 °C 1020.9 hPa NNW 3.2 km/h 19.3 km/h 37 % 0 mm
20:34 18.3 °C 3 °C 1020.9 hPa NNW 8 km/h 19.3 km/h 36 % 0 mm
20:39 18.3 °C 3 °C 1021.2 hPa WNW 6.4 km/h 19.3 km/h 36 % 0 mm
20:44 18.2 °C 3.3 °C 1021.2 hPa NNW 3.2 km/h 19.3 km/h 37 % 0 mm
20:49 18.1 °C 3.2 °C 1021.2 hPa NNW 12.9 km/h 16.1 km/h 37 % 0 mm
20:54 18.1 °C 2.8 °C 1021.2 hPa North 8 km/h 19.3 km/h 36 % 0 mm
20:59 18 °C 2.3 °C 1021.2 hPa NNW 12.9 km/h 20.9 km/h 35 % 0 mm
21:04 17.9 °C 2.2 °C 1021.6 hPa NNW 9.7 km/h 24.1 km/h 35 % 0 mm
21:09 17.8 °C 2.1 °C 1021.6 hPa NNW 4.8 km/h 24.1 km/h 35 % 0 mm
21:14 17.8 °C 1.7 °C 1021.6 hPa North 8 km/h 25.7 km/h 34 % 0 mm
21:19 17.7 °C 1.6 °C 1021.6 hPa NW 9.7 km/h 25.7 km/h 34 % 0 mm
21:24 17.6 °C 1.5 °C 1021.6 hPa NNW 8 km/h 25.7 km/h 34 % 0 mm
21:29 17.6 °C 1.1 °C 1021.6 hPa NNW 8 km/h 19.3 km/h 33 % 0 mm
21:34 17.4 °C 1 °C 1021.9 hPa North 4.8 km/h 17.7 km/h 33 % 0 mm
21:39 17.4 °C 1 °C 1021.9 hPa NNW 3.2 km/h 17.7 km/h 33 % 0 mm
21:44 17.3 °C 0.4 °C 1021.9 hPa NNW 3.2 km/h 17.7 km/h 32 % 0 mm
21:49 17.2 °C 0.4 °C 1021.9 hPa NW 9.7 km/h 17.7 km/h 32 % 0 mm
21:54 17.2 °C 0.4 °C 1022.2 hPa NW 3.2 km/h 17.7 km/h 32 % 0 mm
21:59 17.1 °C -0.2 °C 1022.2 hPa NNW 6.4 km/h 16.1 km/h 31 % 0 mm
22:04 17.1 °C -0.2 °C 1022.2 hPa WNW 1.6 km/h 20.9 km/h 31 % 0 mm
22:09 16.9 °C 0.1 °C 1022.2 hPa NNW 8 km/h 20.9 km/h 32 % 0 mm
22:14 16.9 °C -0.8 °C 1022.2 hPa WNW 4.8 km/h 20.9 km/h 30 % 0 mm
22:19 16.9 °C -0.3 °C 1022.2 hPa WNW 4.8 km/h 14.5 km/h 31 % 0 mm
22:24 16.8 °C -0.9 °C 1022.2 hPa NW 4.8 km/h 22.5 km/h 30 % 0 mm
22:29 16.7 °C -1 °C 1022.2 hPa NNE 6.4 km/h 22.5 km/h 30 % 0 mm
22:34 16.7 °C -1 °C 1022.2 hPa NNW 4.8 km/h 22.5 km/h 30 % 0 mm
22:39 16.5 °C -0.7 °C 1022.2 hPa NW 1.6 km/h 17.7 km/h 31 % 0 mm
22:44 16.5 °C -1.1 °C 1022.6 hPa North 4.8 km/h 17.7 km/h 30 % 0 mm
22:49 16.4 °C -1.2 °C 1022.6 hPa North 6.4 km/h 20.9 km/h 30 % 0 mm
22:55 16.3 °C -1.3 °C 1022.6 hPa North 4.8 km/h 20.9 km/h 30 % 0 mm
23:00 16.1 °C -1.5 °C 1022.6 hPa NW 3.2 km/h 20.9 km/h 30 % 0 mm
23:05 15.9 °C -1.2 °C 1022.6 hPa NNW 6.4 km/h 19.3 km/h 31 % 0 mm
23:10 15.8 °C -1.3 °C 1022.6 hPa NW 4.8 km/h 14.5 km/h 31 % 0 mm
23:15 15.7 °C -1.4 °C 1022.6 hPa NW 1.6 km/h 12.9 km/h 31 % 0 mm
23:20 15.5 °C -1.1 °C 1022.9 hPa NW 1.6 km/h 9.7 km/h 32 % 0 mm
23:25 15.4 °C -1.2 °C 1022.6 hPa East 1.6 km/h 11.3 km/h 32 % 0 mm
23:30 15.3 °C -1.3 °C 1022.6 hPa NNW 8 km/h 11.3 km/h 32 % 0 mm
23:35 15.2 °C -1.4 °C 1022.9 hPa NW 3.2 km/h 11.3 km/h 32 % 0 mm
23:40 15.1 °C -1.5 °C 1022.9 hPa NW 4.8 km/h 11.3 km/h 32 % 0 mm
23:45 15.1 °C -1.5 °C 1022.9 hPa NNW 1.6 km/h 11.3 km/h 32 % 0 mm
23:50 14.9 °C -1.2 °C 1022.9 hPa NNW 6.4 km/h 11.3 km/h 33 % 0 mm
23:55 14.8 °C -1.7 °C 1022.9 hPa WNW 3.2 km/h 11.3 km/h 32 % 0 mm
Spring, Texas: Villages of Bridgestone
Compliments of Weather Underground - 2.75 mb

Script developed by  Jim McMurry - jmcmurry@mwt.net Adapted for the template by  Wim van der Kuil - Leuven-Template.eu

You find our weather info also at:

UK Metoffice

WeatherCloud

Weather Underground

Mid-South Weather Network

AWEKAS

Citizen Weather Observer Program (CWOP)

HAMweather, WeatherForYou, PWS Weather

Equipment we use:

Weather-station
Davis Vantage Vue

Weather-program
Meteohub

Weather-server
Debian 7.9 x86 (Guest)

Provider
DreamHost

Davis Vantage Vue

Meteohub

Debian 7.9 x86 (Guest)

DreamHost